createdAt,value
2022-12-01T06:37:12.616Z,0.857143
2022-12-01T06:38:12.633Z,0.857143
2022-12-01T06:39:12.656Z,1.71429
2022-12-01T06:40:12.684Z,1.71429
2022-12-01T06:41:12.724Z,1.71429
2022-12-01T06:42:12.745Z,2.5
2022-12-01T06:43:12.778Z,2.5
2022-12-01T06:44:12.819Z,2.5
2022-12-01T06:45:12.843Z,3.35714
2022-12-01T06:46:12.957Z,4.21429
2022-12-01T06:47:12.909Z,4.21429
2022-12-01T06:48:12.945Z,5
2022-12-01T06:49:12.970Z,5.85714
2022-12-01T06:50:13.001Z,5.85714
2022-12-01T06:51:13.031Z,6.71429
2022-12-01T06:52:13.049Z,8.35714
2022-12-01T06:53:13.075Z,9.21429
2022-12-01T06:54:13.108Z,10
2022-12-01T06:55:13.148Z,9.21429
2022-12-01T06:56:13.180Z,10
2022-12-01T06:57:13.208Z,10.8571
2022-12-01T06:58:13.243Z,11.7143
2022-12-01T06:59:13.260Z,13.3571
2022-12-01T07:00:13.291Z,15.8571
2022-12-01T07:01:13.362Z,15.8571
2022-12-01T07:02:13.418Z,16.7143
2022-12-01T07:03:13.398Z,18.3571
2022-12-01T07:04:13.415Z,20
2022-12-01T07:05:13.455Z,20.8571
2022-12-01T07:06:13.479Z,22.5
2022-12-01T07:07:13.508Z,22.5
2022-12-01T07:08:13.621Z,23.3571
2022-12-01T07:09:13.569Z,25
2022-12-01T07:10:13.591Z,26.7143
2022-12-01T07:11:13.627Z,29.2143
2022-12-01T07:12:13.657Z,32.5
2022-12-01T07:13:13.680Z,35
2022-12-01T07:14:13.715Z,39.2143
2022-12-01T07:15:13.742Z,40.8571
2022-12-01T07:16:13.888Z,41.7143
2022-12-01T07:17:13.796Z,45
2022-12-01T07:18:13.827Z,45
2022-12-01T07:19:13.851Z,46.7143
2022-12-01T07:20:14.131Z,50
2022-12-01T07:21:13.918Z,55
2022-12-01T07:22:13.934Z,57.5
2022-12-01T07:23:13.969Z,59.2143
2022-12-01T07:24:14.008Z,61.7143
2022-12-01T07:25:14.096Z,60.8571
2022-12-01T07:26:14.073Z,62.5
2022-12-01T07:27:14.242Z,65.8571
2022-12-01T07:28:14.133Z,69.2143
2022-12-01T07:29:14.201Z,68.3571
2022-12-01T07:30:14.198Z,71.7143
2022-12-01T07:31:14.269Z,77.5
2022-12-01T07:32:14.260Z,84.2143
2022-12-01T07:33:14.293Z,93.3571
2022-12-01T07:34:14.341Z,99.2143
2022-12-01T07:35:14.362Z,107.5
2022-12-01T07:36:14.390Z,112.5
2022-12-01T07:37:14.429Z,119.214
2022-12-01T07:38:19.120Z,130
2022-12-01T07:39:14.485Z,131.714
2022-12-01T07:40:14.502Z,130.857
2022-12-01T07:41:14.532Z,139.214
2022-12-01T07:42:14.574Z,145.857
2022-12-01T07:43:14.603Z,169.214
2022-12-01T07:44:14.634Z,182.5
2022-12-01T07:45:14.672Z,183.357
2022-12-01T07:46:20.398Z,185.857
2022-12-01T07:47:14.702Z,195.857
2022-12-01T07:48:14.728Z,198.357
2022-12-01T07:49:14.784Z,203.357
2022-12-01T07:50:14.809Z,204.214
2022-12-01T07:51:14.817Z,203.357
2022-12-01T07:52:14.853Z,224.214
2022-12-01T07:53:14.883Z,240
2022-12-01T07:54:14.926Z,243.357
2022-12-01T07:55:14.947Z,250.857
2022-12-01T07:56:14.986Z,247.5
2022-12-01T07:57:15.025Z,240.857
2022-12-01T07:58:15.053Z,234.214
2022-12-01T07:59:15.080Z,240
2022-12-01T08:00:15.107Z,244.214
2022-12-01T08:01:15.172Z,238.357
2022-12-01T08:02:15.271Z,240
2022-12-01T08:03:15.241Z,244.214
2022-12-01T08:04:15.231Z,250
2022-12-01T08:05:15.256Z,259.214
2022-12-01T08:06:15.290Z,278.357
2022-12-01T08:07:15.318Z,305.857
2022-12-01T08:08:15.431Z,310
2022-12-01T08:09:15.391Z,315
2022-12-01T08:10:15.411Z,315.857
2022-12-01T08:11:15.461Z,309.214
2022-12-01T08:12:15.479Z,300
2022-12-01T08:13:17.401Z,297.5
2022-12-01T08:14:15.542Z,273.357
2022-12-01T08:15:15.583Z,280.857
2022-12-01T08:16:15.748Z,289.214
2022-12-01T08:17:15.637Z,296.714
2022-12-01T08:18:15.674Z,312.5
2022-12-01T08:19:15.696Z,320
2022-12-01T08:20:18.424Z,325.857
2022-12-01T08:21:15.813Z,326.714
2022-12-01T08:22:15.792Z,328.357
2022-12-01T08:23:15.827Z,327.5
2022-12-01T08:24:15.853Z,339.214
2022-12-01T08:25:15.880Z,348.357
2022-12-01T08:26:15.932Z,345.857
2022-12-01T08:27:15.945Z,349.214
2022-12-01T08:28:15.985Z,364.214
2022-12-01T08:29:20.177Z,363.357
2022-12-01T08:30:16.033Z,364.214
2022-12-01T08:31:16.136Z,360.857
2022-12-01T08:32:16.103Z,374.214
2022-12-01T08:33:16.123Z,378.357
2022-12-01T08:34:16.154Z,386.714
2022-12-01T08:35:16.185Z,406.714
2022-12-01T08:36:16.203Z,414.214
2022-12-01T08:37:16.236Z,425
2022-12-01T08:38:16.260Z,437.5
2022-12-01T08:39:16.290Z,437.5
2022-12-01T08:40:16.323Z,434.214
2022-12-01T08:41:16.355Z,434.214
2022-12-01T08:42:16.392Z,439.214
2022-12-01T08:43:41.439Z,440
2022-12-01T08:44:16.490Z,442.5
2022-12-01T08:45:16.481Z,458.357
2022-12-01T08:46:16.556Z,475.857
2022-12-01T08:47:18.842Z,490
2022-12-01T08:48:16.585Z,494.214
2022-12-01T08:49:16.621Z,484.214
2022-12-01T08:50:16.659Z,480
2022-12-01T08:51:16.663Z,471.714
2022-12-01T08:52:16.719Z,462.5
2022-12-01T08:53:16.738Z,454.214
2022-12-01T08:54:16.765Z,483.357
2022-12-01T08:55:16.789Z,500.857
2022-12-01T08:56:16.817Z,539.214
2022-12-01T08:57:16.845Z,557.5
2022-12-01T08:58:16.871Z,583.357
2022-12-01T08:59:16.900Z,583.357
2022-12-01T09:00:16.930Z,570
2022-12-01T09:01:17.071Z,569.214
2022-12-01T09:02:17.058Z,552.5
2022-12-01T09:03:17.095Z,574.214
2022-12-01T09:04:17.050Z,572.5
2022-12-01T09:05:17.075Z,569.214
2022-12-01T09:06:17.104Z,596.714
2022-12-01T09:07:20.286Z,616.714
2022-12-01T09:08:17.287Z,623.357
2022-12-01T09:09:17.208Z,608.357
2022-12-01T09:10:17.245Z,638.357
2022-12-01T09:11:17.271Z,678.357
2022-12-01T09:12:17.303Z,632.5
2022-12-01T09:13:17.327Z,602.5
2022-12-01T09:14:17.351Z,590.857
2022-12-01T09:15:17.379Z,586.714
2022-12-01T09:16:17.405Z,592.5
2022-12-01T09:17:17.443Z,595.857
2022-12-01T09:18:17.463Z,584.214
2022-12-01T09:19:23.724Z,556.714
2022-12-01T09:20:17.541Z,541.714
2022-12-01T09:21:17.573Z,560.857
2022-12-01T09:22:17.602Z,575
2022-12-01T09:23:17.624Z,565
2022-12-01T09:24:17.652Z,566.714
2022-12-01T09:25:17.679Z,561.714
2022-12-01T09:26:17.719Z,541.714
2022-12-01T09:27:17.751Z,533.357
2022-12-01T09:28:17.783Z,520.857
2022-12-01T09:29:17.815Z,505.857
2022-12-01T09:30:17.849Z,520
2022-12-01T09:31:17.965Z,520
2022-12-01T09:32:17.900Z,531.714
2022-12-01T09:33:17.938Z,528.357
2022-12-01T09:34:17.958Z,505.857
2022-12-01T09:35:23.125Z,464.214
2022-12-01T09:36:18.024Z,465
2022-12-01T09:37:18.064Z,478.357
2022-12-01T09:38:18.080Z,487.5
2022-12-01T09:39:18.113Z,492.5
2022-12-01T09:40:18.144Z,520.857
2022-12-01T09:41:18.184Z,559.214
2022-12-01T09:42:18.223Z,551.714
2022-12-01T09:43:18.262Z,549.214
2022-12-01T09:44:18.291Z,548.357
2022-12-01T09:45:18.326Z,590.857
2022-12-01T09:46:18.376Z,592.5
2022-12-01T09:47:18.395Z,591.714
2022-12-01T09:48:18.483Z,610.857
2022-12-01T09:49:18.460Z,652.5
2022-12-01T09:50:18.487Z,650
2022-12-01T09:51:18.514Z,657.5
2022-12-01T09:52:18.556Z,665
2022-12-01T09:53:18.657Z,669.214
2022-12-01T09:54:18.618Z,664.214
2022-12-01T09:55:18.659Z,647.5
2022-12-01T09:56:18.682Z,626.714
2022-12-01T09:57:18.714Z,640
2022-12-01T09:58:18.755Z,646.714
2022-12-01T09:59:18.782Z,636.714
2022-12-01T10:00:18.805Z,605
2022-12-01T10:01:23.033Z,610
2022-12-01T10:02:18.921Z,610
2022-12-01T10:03:18.884Z,611.714
2022-12-01T10:04:18.921Z,625.857
2022-12-01T10:05:18.999Z,610
2022-12-01T10:06:27.466Z,579.214
2022-12-01T10:07:19.017Z,553.357
2022-12-01T10:08:22.481Z,537.5
2022-12-01T10:09:19.077Z,528.357
2022-12-01T10:10:19.138Z,529.214
2022-12-01T10:11:19.146Z,535.857
2022-12-01T10:12:19.183Z,535.857
2022-12-01T10:13:19.209Z,525
2022-12-01T10:14:20.495Z,533.357
2022-12-01T10:15:19.272Z,533.357
2022-12-01T10:16:19.352Z,502.5
2022-12-01T10:17:19.341Z,527.5
2022-12-01T10:18:19.367Z,505
2022-12-01T10:19:19.391Z,488.357
2022-12-01T10:20:19.429Z,496.714
2022-12-01T10:21:19.456Z,525
2022-12-01T10:22:19.484Z,534.214
2022-12-01T10:23:19.525Z,558.357
2022-12-01T10:24:19.550Z,581.714
2022-12-01T10:25:19.577Z,607.5
2022-12-01T10:26:19.617Z,656.714
2022-12-01T10:27:19.649Z,687.5
2022-12-01T10:28:19.693Z,695
2022-12-01T10:29:19.704Z,702.5
2022-12-01T10:30:19.822Z,710.857
2022-12-01T10:31:19.820Z,724.214
2022-12-01T10:32:19.810Z,713.357
2022-12-01T10:33:19.840Z,679.214
2022-12-01T10:34:19.871Z,663.357
2022-12-01T10:35:19.899Z,690
2022-12-01T10:36:19.930Z,675.857
2022-12-01T10:37:25.059Z,683.357
2022-12-01T10:38:19.993Z,729.214
2022-12-01T10:39:20.031Z,748.357
2022-12-01T10:40:20.059Z,699.214
2022-12-01T10:41:20.087Z,666.714
2022-12-01T10:42:20.119Z,668.357
2022-12-01T10:43:20.146Z,641.714
2022-12-01T10:44:20.192Z,636.714
2022-12-01T10:45:20.213Z,624.214
2022-12-01T10:46:20.301Z,626.714
2022-12-01T10:47:20.274Z,631.714
2022-12-01T10:48:20.301Z,637.5
2022-12-01T10:49:20.335Z,650.857
2022-12-01T10:50:20.358Z,640.857
2022-12-01T10:51:20.391Z,640
2022-12-01T10:52:20.429Z,654.214
2022-12-01T10:53:20.462Z,646.714
2022-12-01T10:54:20.493Z,669.214
2022-12-01T10:55:20.530Z,685.857
2022-12-01T10:56:20.559Z,682.5
2022-12-01T10:57:20.587Z,710.857
2022-12-01T10:58:20.618Z,714.214
2022-12-01T10:59:20.645Z,716.714
2022-12-01T11:00:43.258Z,733.357
2022-12-01T11:01:20.855Z,720.857
2022-12-01T11:02:20.944Z,713.357
2022-12-01T11:03:21.976Z,715
2022-12-01T11:04:20.794Z,712.5
2022-12-01T11:05:20.823Z,772.5
2022-12-01T11:06:20.864Z,787.5
2022-12-01T11:07:20.952Z,776.714
2022-12-01T11:08:20.954Z,765.857
2022-12-01T11:09:26.009Z,784.214
2022-12-01T11:10:21.033Z,769.214
2022-12-01T11:11:21.024Z,764.214
2022-12-01T11:12:21.063Z,775
2022-12-01T11:13:21.118Z,804.214
2022-12-01T11:14:21.137Z,825.857
2022-12-01T11:15:21.158Z,824.214
2022-12-01T11:16:21.232Z,801.714
2022-12-01T11:17:21.215Z,793.357
2022-12-01T11:18:21.263Z,780
2022-12-01T11:19:26.857Z,731.714
2022-12-01T11:20:21.494Z,733.357
2022-12-01T11:21:21.352Z,705.857
2022-12-01T11:22:21.382Z,676.714
2022-12-01T11:23:21.402Z,641.714
2022-12-01T11:24:21.432Z,616.714
2022-12-01T11:25:21.458Z,606.714
2022-12-01T11:26:21.500Z,568.357
2022-12-01T11:27:21.537Z,557.5
2022-12-01T11:28:21.570Z,567.5
2022-12-01T11:29:21.593Z,582.5
2022-12-01T11:30:21.633Z,584.214
2022-12-01T11:31:21.711Z,635
2022-12-01T11:32:21.689Z,650
2022-12-01T11:33:21.723Z,677.5
2022-12-01T11:34:21.758Z,717.5
2022-12-01T11:35:21.788Z,712.5
2022-12-01T11:36:21.826Z,675.857
2022-12-01T11:37:21.844Z,687.5
2022-12-01T11:39:21.940Z,709.214
2022-12-01T11:40:21.941Z,698.357
2022-12-01T11:41:21.965Z,707.5
2022-12-01T11:42:22.005Z,694.214
2022-12-01T11:43:22.033Z,735
2022-12-01T11:44:49.564Z,760.857
2022-12-01T11:48:27.360Z,812.5
2022-12-01T11:49:22.194Z,864.214
2022-12-01T11:50:22.221Z,883.357
2022-12-01T11:51:22.265Z,909.214
2022-12-01T11:52:22.298Z,858.357
2022-12-01T11:53:22.320Z,777.5
2022-12-01T11:54:22.353Z,767.5
2022-12-01T11:55:22.387Z,731.714
2022-12-01T11:56:22.416Z,747.5
2022-12-01T11:57:33.753Z,711.714
2022-12-01T11:58:22.528Z,659.214
2022-12-01T11:59:22.509Z,640.857
2022-12-01T12:00:22.552Z,645
2022-12-01T12:01:22.581Z,678.357
2022-12-01T12:02:22.673Z,665.857
2022-12-01T12:03:22.714Z,660.857
2022-12-01T12:04:22.668Z,667.5
2022-12-01T12:05:22.689Z,650
2022-12-01T12:06:39.864Z,651.714
2022-12-01T12:07:22.799Z,652.5
2022-12-01T12:08:22.782Z,625
2022-12-01T12:09:22.802Z,595
2022-12-01T12:10:22.887Z,578.357
2022-12-01T12:11:22.870Z,579.214
2022-12-01T12:12:22.896Z,617.5
2022-12-01T12:13:22.923Z,627.5
2022-12-01T12:14:22.952Z,621.714
2022-12-01T12:15:22.987Z,630
2022-12-01T12:16:24.543Z,619.214
2022-12-01T12:17:23.108Z,586.714
2022-12-01T12:18:23.094Z,588.357
2022-12-01T12:19:33.720Z,608.357
2022-12-01T12:20:23.186Z,627.5
2022-12-01T12:21:23.178Z,646.714
2022-12-01T12:22:23.196Z,642.5
2022-12-01T12:23:23.218Z,646.714
2022-12-01T12:24:23.244Z,647.5
2022-12-01T12:25:23.299Z,650.857
2022-12-01T12:26:23.325Z,653.357
2022-12-01T12:27:23.345Z,655.857
2022-12-01T12:28:23.381Z,649.214
2022-12-01T12:29:23.403Z,633.357
2022-12-01T12:30:23.428Z,625.857
2022-12-01T12:31:23.511Z,626.714
2022-12-01T12:32:23.497Z,640.857
2022-12-01T12:33:23.535Z,645
2022-12-01T12:34:23.554Z,640
2022-12-01T12:35:23.579Z,608.357
2022-12-01T12:36:23.602Z,593.357
2022-12-01T12:37:23.638Z,572.5
2022-12-01T12:38:23.663Z,570.857
2022-12-01T12:39:23.692Z,587.5
2022-12-01T12:40:23.722Z,610
2022-12-01T12:41:23.762Z,613.357
2022-12-01T12:42:23.792Z,608.357
2022-12-01T12:43:23.845Z,615.857
2022-12-01T12:44:23.855Z,630.857
2022-12-01T12:45:23.878Z,618.357
2022-12-01T12:46:23.996Z,605.857
2022-12-01T12:47:23.943Z,579.214
2022-12-01T12:48:24.012Z,563.357
2022-12-01T12:49:23.997Z,556.714
2022-12-01T12:50:24.036Z,563.357
2022-12-01T12:51:24.064Z,545.857
2022-12-01T12:52:24.110Z,511.714
2022-12-01T12:53:24.135Z,534.214
2022-12-01T12:54:24.191Z,490.857
2022-12-01T12:55:24.187Z,486.714
2022-12-01T12:56:24.220Z,484.214
2022-12-01T12:57:24.260Z,456.714
2022-12-01T12:58:24.282Z,474.214
2022-12-01T12:59:24.318Z,475.857
2022-12-01T13:00:24.353Z,455
2022-12-01T13:01:24.460Z,436.714
2022-12-01T13:02:24.487Z,394.214
2022-12-01T13:03:27.883Z,360
2022-12-01T13:04:24.461Z,347.5
2022-12-01T13:05:24.499Z,345
2022-12-01T13:06:24.518Z,350
2022-12-01T13:07:24.577Z,342.5
2022-12-01T13:08:24.574Z,344.214
2022-12-01T13:09:24.598Z,342.5
2022-12-01T13:10:24.641Z,325
2022-12-01T13:11:24.663Z,324.214
2022-12-01T13:12:24.696Z,321.714
2022-12-01T13:13:24.722Z,310
2022-12-01T13:14:24.761Z,292.5
2022-12-01T13:15:24.787Z,280.857
2022-12-01T13:16:24.855Z,268.357
2022-12-01T13:17:24.846Z,261.714
2022-12-01T13:18:24.874Z,255.857
2022-12-01T13:19:24.913Z,263.357
2022-12-01T13:20:24.935Z,262.5
2022-12-01T13:21:25.025Z,246.714
2022-12-01T13:22:25.002Z,243.357
2022-12-01T13:23:25.034Z,238.357
2022-12-01T13:24:25.060Z,241.714
2022-12-01T13:25:25.087Z,234.214
2022-12-01T13:26:25.128Z,240.857
2022-12-01T13:27:25.159Z,239.214
2022-12-01T13:28:25.186Z,225
2022-12-01T13:29:25.231Z,223.357
2022-12-01T13:30:25.259Z,220
2022-12-01T13:31:25.330Z,208.357
2022-12-01T13:32:25.298Z,220.857
2022-12-01T13:33:25.333Z,210
2022-12-01T13:34:25.370Z,196.714
2022-12-01T13:35:25.408Z,182.5
2022-12-01T13:36:46.220Z,187.5
2022-12-01T13:37:25.466Z,185
2022-12-01T13:38:25.482Z,191.714
2022-12-01T13:39:25.518Z,190
2022-12-01T13:40:25.561Z,181.714
2022-12-01T13:41:25.590Z,178.357
2022-12-01T13:42:25.609Z,169.214
2022-12-01T13:43:25.644Z,166.714
2022-12-01T13:44:25.668Z,169.214
2022-12-01T13:45:25.698Z,175
2022-12-01T13:46:25.815Z,168.357
2022-12-01T13:47:25.765Z,165.857
2022-12-01T13:48:25.798Z,155
2022-12-01T13:49:28.910Z,154.214
2022-12-01T13:50:25.863Z,157.5
2022-12-01T13:51:25.884Z,166.714
2022-12-01T13:52:25.920Z,164.214
2022-12-01T13:53:25.948Z,162.5
2022-12-01T13:54:25.997Z,162.5
2022-12-01T13:55:26.015Z,158.357
2022-12-01T13:56:26.042Z,160
2022-12-01T13:57:26.091Z,151.714
2022-12-01T13:58:26.120Z,150
2022-12-01T13:59:26.158Z,151.714
2022-12-01T14:00:26.276Z,149.214
2022-12-01T14:01:26.402Z,135
2022-12-01T14:02:26.422Z,136.714
2022-12-01T14:03:26.324Z,132.5
2022-12-01T14:04:26.315Z,133.357
2022-12-01T14:05:26.349Z,130.857
2022-12-01T14:06:26.376Z,124.214
2022-12-01T14:07:26.543Z,118.357
2022-12-01T14:08:26.521Z,123.357
2022-12-01T14:09:26.494Z,118.357
2022-12-01T14:10:26.526Z,106.714
2022-12-01T14:11:26.558Z,106.714
2022-12-01T14:12:26.620Z,103.357
2022-12-01T14:13:26.656Z,98.3571
2022-12-01T14:14:26.652Z,91.7143
2022-12-01T14:15:26.688Z,87.5
2022-12-01T14:16:26.779Z,82.5
2022-12-01T14:17:26.740Z,77.5
2022-12-01T14:18:26.773Z,72.5
2022-12-01T14:19:26.812Z,66.7143
2022-12-01T14:20:26.839Z,60.8571
2022-12-01T14:21:28.619Z,59.2143
2022-12-01T14:22:26.917Z,60.8571
2022-12-01T14:23:26.947Z,58.3571
2022-12-01T14:24:26.989Z,55.8571
2022-12-01T14:25:27.028Z,53.3571
2022-12-01T14:26:27.057Z,50.8571
2022-12-01T14:27:27.079Z,49.2143
2022-12-01T14:28:27.121Z,47.5
2022-12-01T14:29:27.148Z,46.7143
2022-12-01T14:30:27.176Z,44.2143
2022-12-01T14:31:27.298Z,43.3571
2022-12-01T14:32:27.243Z,43.3571
2022-12-01T14:33:27.280Z,41.7143
2022-12-01T14:34:27.316Z,38.3571
2022-12-01T14:35:27.346Z,36.7143
2022-12-01T14:36:27.382Z,37.5
2022-12-01T14:37:27.424Z,35
2022-12-01T14:38:27.440Z,35
2022-12-01T14:39:27.472Z,35
2022-12-01T14:40:27.504Z,34.2143
2022-12-01T14:41:27.534Z,33.3571
2022-12-01T14:42:27.564Z,32.5
2022-12-01T14:43:27.601Z,31.7143
2022-12-01T14:44:27.722Z,30.8571
2022-12-01T14:45:27.673Z,30
2022-12-01T14:46:27.712Z,27.5
2022-12-01T14:47:27.721Z,28.3571
2022-12-01T14:48:27.749Z,29.2143
2022-12-01T14:49:27.790Z,28.3571
2022-12-01T14:50:27.865Z,26.7143
2022-12-01T14:51:27.841Z,25
2022-12-01T14:52:27.875Z,24.2143
2022-12-01T14:53:27.900Z,21.7143
2022-12-01T14:54:27.933Z,20.8571
2022-12-01T14:55:27.981Z,20
2022-12-01T14:56:27.993Z,18.3571
2022-12-01T14:57:28.024Z,17.5
2022-12-01T14:58:28.064Z,15.8571
2022-12-01T14:59:28.082Z,15
2022-12-01T15:00:28.109Z,13.3571
2022-12-01T15:01:28.251Z,12.5
2022-12-01T15:02:28.253Z,11.7143
2022-12-01T15:03:32.010Z,10
2022-12-01T15:04:28.223Z,9.21429
2022-12-01T15:05:28.272Z,8.35714
2022-12-01T15:06:28.286Z,7.5
2022-12-01T15:07:28.400Z,6.71429
2022-12-01T15:08:42.051Z,5.85714
2022-12-01T15:09:35.261Z,5
2022-12-01T15:10:28.414Z,4.21429
2022-12-01T15:11:28.442Z,3.35714
2022-12-01T15:12:28.487Z,3.35714
2022-12-01T15:13:28.516Z,2.5
2022-12-01T15:14:28.552Z,2.5
2022-12-01T15:15:28.568Z,1.71429
2022-12-01T15:16:28.649Z,1.71429
2022-12-01T15:17:28.625Z,0.857143
2022-12-01T15:18:28.659Z,0.857143
2022-12-01T15:19:28.691Z,0.857143
